createdAt,value
2018-06-29T00:01:14.894Z,101226.34
2018-06-29T00:03:43.127Z,101232.09
2018-06-29T00:06:11.398Z,101222.06
2018-06-29T00:08:39.616Z,101220.03
2018-06-29T00:11:07.871Z,101215.59
2018-06-29T00:13:36.098Z,101217.79
2018-06-29T00:16:04.313Z,101219.35
2018-06-29T00:18:32.572Z,101223.77
2018-06-29T00:21:00.821Z,101222.67
2018-06-29T00:23:29.068Z,101235.45
2018-06-29T00:25:57.624Z,101227.58
2018-06-29T00:28:25.857Z,101222.22
2018-06-29T00:30:54.067Z,101231.28
2018-06-29T00:33:22.289Z,101233.11
2018-06-29T00:35:50.567Z,101226.39
2018-06-29T00:38:18.828Z,101228.56
2018-06-29T00:40:47.097Z,101225.50
2018-06-29T00:43:15.325Z,101230.47
2018-06-29T00:45:43.933Z,101233.73
2018-06-29T00:48:12.132Z,101238.94
2018-06-29T00:50:40.363Z,101237.53
2018-06-29T00:53:08.621Z,101242.52
2018-06-29T00:55:36.877Z,101238.86
2018-06-29T00:58:05.275Z,101233.81
2018-06-29T01:00:33.793Z,101242.44
2018-06-29T01:03:02.064Z,101239.67
2018-06-29T01:05:30.322Z,101237.97
2018-06-29T01:07:58.981Z,101241.05
2018-06-29T01:10:27.499Z,101241.55
2018-06-29T01:12:55.720Z,101241.77
2018-06-29T01:15:23.959Z,101239.01
2018-06-29T01:17:52.528Z,101231.75
2018-06-29T01:20:20.745Z,101235.34
2018-06-29T01:22:48.916Z,101227.80
2018-06-29T01:25:17.140Z,101220.88
2018-06-29T01:27:45.352Z,101214.22
2018-06-29T01:30:13.654Z,101212.01
2018-06-29T01:32:41.918Z,101210.63
2018-06-29T01:35:10.426Z,101217.20
2018-06-29T01:37:38.620Z,101217.14
2018-06-29T01:40:06.910Z,101220.10
2018-06-29T01:42:35.593Z,101229.50
2018-06-29T01:45:03.972Z,101226.73
2018-06-29T01:47:32.123Z,101231.72
2018-06-29T01:50:00.393Z,101227.50
2018-06-29T01:52:28.613Z,101234.70
2018-06-29T01:54:57.019Z,101229.44
2018-06-29T01:57:25.284Z,101228.59
2018-06-29T01:59:53.521Z,101221.69
2018-06-29T02:02:21.853Z,101215.89
2018-06-29T02:04:50.660Z,101209.53
2018-06-29T02:07:19.239Z,101210.36
2018-06-29T02:09:47.794Z,101207.02
2018-06-29T02:12:16.057Z,101209.73
2018-06-29T02:14:44.413Z,101210.82
2018-06-29T02:17:12.653Z,101214.36
2018-06-29T02:19:41.106Z,101209.09
2018-06-29T02:22:09.354Z,101205.17
2018-06-29T02:24:37.595Z,101201.86
2018-06-29T02:27:05.816Z,101199.35
2018-06-29T02:29:34.078Z,101198.80
2018-06-29T02:32:02.325Z,101199.58
2018-06-29T02:34:30.573Z,101197.62
2018-06-29T02:36:58.767Z,101191.55
2018-06-29T02:39:27.046Z,101188.43
2018-06-29T02:41:55.213Z,101190.07
2018-06-29T02:44:23.398Z,101193.41
2018-06-29T02:46:51.623Z,101189.95
2018-06-29T02:49:19.821Z,101191.81
2018-06-29T02:51:48.061Z,101187.87
2018-06-29T02:54:16.325Z,101188.70
2018-06-29T02:56:44.482Z,101190.05
2018-06-29T02:59:12.619Z,101186.48
2018-06-29T03:01:40.814Z,101182.05
2018-06-29T03:04:09.037Z,101175.43
2018-06-29T03:06:37.245Z,101171.28
2018-06-29T03:09:07.800Z,101169.41
2018-06-29T03:11:36.219Z,101162.02
2018-06-29T03:14:04.733Z,101165.55
2018-06-29T03:16:32.934Z,101163.59
2018-06-29T03:19:01.147Z,101164.43
2018-06-29T03:21:29.343Z,101164.78
2018-06-29T03:23:57.565Z,101160.20
2018-06-29T03:26:25.712Z,101159.11
2018-06-29T03:28:54.301Z,101152.97
2018-06-29T03:31:22.530Z,101151.10
2018-06-29T03:33:50.758Z,101150.33
2018-06-29T03:36:18.999Z,101145.92
2018-06-29T03:38:47.263Z,101143.56
2018-06-29T03:41:15.507Z,101137.88
2018-06-29T03:43:43.752Z,101135.29
2018-06-29T03:46:11.989Z,101133.91
2018-06-29T03:48:40.248Z,101133.41
2018-06-29T03:51:08.529Z,101132.69
2018-06-29T03:53:36.802Z,101127.81
2018-06-29T03:56:05.059Z,101129.93
2018-06-29T03:58:33.285Z,101123.36
2018-06-29T04:01:01.474Z,101136.77
2018-06-29T04:03:29.703Z,101137.23
2018-06-29T04:05:57.945Z,101128.77
2018-06-29T04:08:26.222Z,101129.03
2018-06-29T04:10:54.487Z,101121.00
2018-06-29T04:13:22.719Z,101123.73
2018-06-29T04:15:50.949Z,101116.94
2018-06-29T04:18:19.148Z,101121.64
2018-06-29T04:20:47.356Z,101120.03
2018-06-29T04:23:15.612Z,101117.97
2018-06-29T04:25:43.883Z,101111.60
2018-06-29T04:28:12.138Z,101114.80
2018-06-29T04:30:40.390Z,101113.33
2018-06-29T04:33:08.947Z,101107.79
2018-06-29T04:35:37.150Z,101115.63
2018-06-29T04:38:05.395Z,101115.57
2018-06-29T04:40:33.778Z,101118.75
2018-06-29T04:43:02.350Z,101115.42
2018-06-29T04:45:30.584Z,101112.63
2018-06-29T04:47:58.829Z,101107.31
2018-06-29T04:50:27.473Z,101107.36
2018-06-29T04:52:55.827Z,101102.08
2018-06-29T04:55:24.148Z,101104.14
2018-06-29T04:57:52.374Z,101108.56
2018-06-29T05:00:20.581Z,101103.89
2018-06-29T05:02:48.777Z,101104.71
2018-06-29T05:05:17.040Z,101103.02
2018-06-29T05:07:45.653Z,101099.08
2018-06-29T05:10:13.838Z,101099.54
2018-06-29T05:12:42.091Z,101103.67
2018-06-29T05:15:10.410Z,101106.30
2018-06-29T05:17:38.659Z,101105.33
2018-06-29T05:20:06.891Z,101101.37
2018-06-29T05:22:35.187Z,101091.50
2018-06-29T05:25:03.383Z,101100.87
2018-06-29T05:27:31.637Z,101095.61
2018-06-29T05:29:59.852Z,101087.82
2018-06-29T05:32:28.100Z,101091.67
2018-06-29T05:34:56.324Z,101095.70
2018-06-29T05:37:24.535Z,101094.16
2018-06-29T05:39:52.801Z,101089.89
2018-06-29T05:42:21.010Z,101082.20
2018-06-29T05:44:49.180Z,101090.44
2018-06-29T05:47:17.707Z,101095.35
2018-06-29T05:49:45.913Z,101091.31
2018-06-29T05:52:14.208Z,101098.02
2018-06-29T05:54:42.506Z,101103.31
2018-06-29T05:57:11.041Z,101106.20
2018-06-29T05:59:39.261Z,101107.91
2018-06-29T06:02:07.438Z,101113.73
2018-06-29T06:04:35.773Z,101118.20
2018-06-29T06:07:03.919Z,101108.46
2018-06-29T06:09:32.156Z,101107.09
2018-06-29T06:12:00.349Z,101104.30
2018-06-29T06:14:28.558Z,101105.11
2018-06-29T06:16:56.809Z,101106.52
2018-06-29T06:19:36.588Z,101110.70
2018-06-29T06:22:04.841Z,101114.31
2018-06-29T06:24:33.001Z,101121.83
2018-06-29T06:27:01.273Z,101118.75
2018-06-29T06:29:29.466Z,101122.09
2018-06-29T06:31:57.731Z,101119.58
2018-06-29T06:34:25.989Z,101111.45
2018-06-29T06:36:54.234Z,101112.25
2018-06-29T06:39:22.499Z,101107.20
2018-06-29T06:41:50.683Z,101113.88
2018-06-29T06:44:18.847Z,101115.77
2018-06-29T06:46:47.175Z,101114.31
2018-06-29T06:49:15.467Z,101109.00
2018-06-29T06:51:43.768Z,101117.02
2018-06-29T06:54:12.249Z,101109.14
2018-06-29T06:56:40.443Z,101109.09
2018-06-29T06:59:08.979Z,101107.39
2018-06-29T07:01:37.149Z,101111.44
2018-06-29T07:04:05.400Z,101112.80
2018-06-29T07:06:33.615Z,101106.31
2018-06-29T07:09:01.938Z,101110.53
2018-06-29T07:11:30.515Z,101104.72
2018-06-29T07:13:58.725Z,101108.61
2018-06-29T07:16:26.962Z,101109.95
2018-06-29T07:18:55.149Z,101102.91
2018-06-29T07:21:23.328Z,101109.88
2018-06-29T07:23:51.561Z,101106.69
2018-06-29T07:26:19.752Z,101102.31
2018-06-29T07:28:47.981Z,101104.28
2018-06-29T07:31:16.128Z,101101.66
2018-06-29T07:33:44.300Z,101095.59
2018-06-29T07:36:12.851Z,101093.18
2018-06-29T07:38:41.255Z,101087.82
2018-06-29T07:41:09.629Z,101093.50
2018-06-29T07:43:37.889Z,101089.75
2018-06-29T07:46:06.867Z,101086.53
2018-06-29T07:48:35.075Z,101082.44
2018-06-29T07:51:03.334Z,101077.61
2018-06-29T07:53:31.520Z,101080.91
2018-06-29T07:56:00.195Z,101070.86
2018-06-29T07:58:28.630Z,101064.53
2018-06-29T08:01:03.391Z,101063.86
2018-06-29T08:03:33.194Z,101053.66
2018-06-29T08:06:01.412Z,101057.47
2018-06-29T08:08:30.154Z,101055.28
2018-06-29T08:10:58.629Z,101064.81
2018-06-29T08:13:27.932Z,101052.97
2018-06-29T08:15:56.255Z,101057.87
2018-06-29T08:18:25.109Z,101060.58
2018-06-29T08:20:53.425Z,101051.45
2018-06-29T08:23:22.492Z,101045.14
2018-06-29T08:25:50.841Z,101050.36
2018-06-29T08:28:18.993Z,101042.49
2018-06-29T08:30:47.176Z,101046.00
2018-06-29T08:33:15.411Z,101050.69
2018-06-29T08:35:43.716Z,101045.56
2018-06-29T08:38:11.907Z,101042.81
2018-06-29T08:40:40.110Z,101042.38
2018-06-29T08:43:08.507Z,101036.45
2018-06-29T08:45:36.699Z,101039.63
2018-06-29T08:48:04.877Z,101033.13
2018-06-29T08:50:33.086Z,101034.09
2018-06-29T08:53:01.301Z,101025.73
2018-06-29T08:55:29.529Z,101024.90
2018-06-29T08:57:57.747Z,101027.63
2018-06-29T09:00:25.920Z,101021.87
2018-06-29T09:02:54.181Z,101018.55
2018-06-29T09:05:22.380Z,101027.86
2018-06-29T09:07:50.614Z,101020.02
2018-06-29T09:10:18.797Z,101019.39
2018-06-29T09:12:46.991Z,101012.27
2018-06-29T09:15:15.230Z,101009.16
2018-06-29T09:17:43.427Z,101008.58
2018-06-29T09:20:11.645Z,101001.47
2018-06-29T09:22:40.115Z,100996.09
2018-06-29T09:25:08.333Z,100987.45
2018-06-29T09:27:36.544Z,100994.89
2018-06-29T09:30:05.637Z,100991.36
2018-06-29T09:32:33.815Z,100992.02
2018-06-29T09:35:02.034Z,100989.59
2018-06-29T09:37:30.229Z,100988.94
2018-06-29T09:39:58.619Z,100985.96
2018-06-29T09:42:26.865Z,100974.44
2018-06-29T09:44:55.172Z,100980.95
2018-06-29T09:47:23.398Z,100972.92
2018-06-29T09:49:51.644Z,100978.06
2018-06-29T09:52:19.899Z,100975.40
2018-06-29T09:54:48.134Z,100984.55
2018-06-29T09:57:16.360Z,100975.31
2018-06-29T09:59:44.623Z,100971.08
2018-06-29T10:02:13.040Z,100967.66
2018-06-29T10:04:41.310Z,100970.74
2018-06-29T10:07:09.517Z,100963.08
2018-06-29T10:09:37.720Z,100967.41
2018-06-29T10:12:06.231Z,100962.81
2018-06-29T10:14:34.424Z,100970.27
2018-06-29T10:17:03.016Z,100963.72
2018-06-29T10:19:31.315Z,100950.11
2018-06-29T10:21:59.658Z,100958.02
2018-06-29T10:24:27.878Z,100946.89
2018-06-29T10:26:56.179Z,100947.77
2018-06-29T10:29:24.406Z,100950.05
2018-06-29T10:31:52.702Z,100946.09
2018-06-29T10:34:20.935Z,100934.38
2018-06-29T10:36:49.238Z,100939.55
2018-06-29T10:39:17.501Z,100932.21
2018-06-29T10:41:46.063Z,100924.37
2018-06-29T10:44:14.318Z,100920.87
2018-06-29T10:46:42.701Z,100923.05
2018-06-29T10:52:01.641Z,100925.78
2018-06-29T10:54:29.909Z,100930.97
2018-06-29T10:56:58.097Z,100916.96
2018-06-29T10:59:26.418Z,100912.62
2018-06-29T11:01:54.674Z,100914.71
2018-06-29T11:04:22.929Z,100897.23
2018-06-29T11:06:51.123Z,100898.98
2018-06-29T11:09:19.745Z,100898.36
2018-06-29T11:11:47.919Z,100900.60
2018-06-29T11:14:16.209Z,100904.92
2018-06-29T11:16:44.661Z,100888.42
2018-06-29T11:19:12.876Z,100893.81
2018-06-29T11:21:41.423Z,100879.50
2018-06-29T11:24:09.682Z,100881.97
2018-06-29T11:26:37.888Z,100874.86
2018-06-29T11:29:06.049Z,100879.44
2018-06-29T11:31:34.320Z,100879.33
2018-06-29T11:34:02.531Z,100875.66
2018-06-29T11:36:30.738Z,100878.84
2018-06-29T11:38:59.025Z,100879.81
2018-06-29T11:41:27.221Z,100871.05
2018-06-29T11:43:55.448Z,100873.94
2018-06-29T11:46:23.734Z,100869.05
2018-06-29T11:48:51.973Z,100867.06
2018-06-29T11:51:20.317Z,100869.55
2018-06-29T11:53:48.645Z,100862.48
2018-06-29T11:56:16.882Z,100865.80
2018-06-29T11:58:45.212Z,100861.11
2018-06-29T12:01:13.510Z,100862.03
2018-06-29T12:03:42.068Z,100862.91
2018-06-29T12:06:10.598Z,100858.56
2018-06-29T12:08:38.836Z,100859.45
2018-06-29T12:11:07.741Z,100862.78
2018-06-29T12:13:35.990Z,100860.91
2018-06-29T12:16:04.321Z,100851.95
2018-06-29T12:18:32.861Z,100850.68
2018-06-29T12:21:01.071Z,100839.77
2018-06-29T12:23:29.317Z,100838.95
2018-06-29T12:25:57.799Z,100840.00
2018-06-29T12:28:26.024Z,100838.00
2018-06-29T12:30:54.238Z,100836.36
2018-06-29T12:33:22.495Z,100835.54
2018-06-29T12:35:50.784Z,100836.95
2018-06-29T12:38:19.053Z,100831.75
2018-06-29T12:40:47.328Z,100825.47
2018-06-29T12:43:15.882Z,100818.12
2018-06-29T12:45:44.177Z,100819.94
2018-06-29T12:48:12.442Z,100824.60
2018-06-29T12:50:40.640Z,100803.09
2018-06-29T12:53:08.840Z,100808.61
2018-06-29T12:55:37.330Z,100803.86
2018-06-29T12:58:05.531Z,100791.88
2018-06-29T13:00:33.746Z,100793.89
2018-06-29T13:03:02.301Z,100799.64
2018-06-29T13:05:30.600Z,100798.70
2018-06-29T13:07:58.740Z,100796.58
2018-06-29T13:10:26.993Z,100802.02
2018-06-29T13:12:56.014Z,100804.13
2018-06-29T13:15:24.317Z,100787.80
2018-06-29T13:17:52.605Z,100787.11
2018-06-29T13:20:20.885Z,100778.67
2018-06-29T13:22:49.137Z,100780.39
2018-06-29T13:25:17.747Z,100768.66
2018-06-29T13:27:46.299Z,100771.42
2018-06-29T13:30:14.533Z,100763.02
2018-06-29T13:32:42.743Z,100764.41
2018-06-29T13:35:11.211Z,100761.75
2018-06-29T13:37:39.414Z,100752.37
2018-06-29T13:40:08.783Z,100753.20
2018-06-29T13:42:37.081Z,100752.09
2018-06-29T13:45:05.492Z,100751.59
2018-06-29T13:47:33.789Z,100741.48
2018-06-29T13:50:02.071Z,100746.75
2018-06-29T13:52:30.381Z,100745.04
2018-06-29T13:54:58.679Z,100740.98
2018-06-29T13:57:27.154Z,100735.78
2018-06-29T13:59:55.387Z,100727.09
2018-06-29T14:02:23.719Z,100736.28
2018-06-29T14:04:51.990Z,100736.28
2018-06-29T14:07:20.538Z,100740.79
2018-06-29T14:09:48.809Z,100734.48
2018-06-29T14:12:17.097Z,100732.06
2018-06-29T14:14:45.372Z,100734.36
2018-06-29T14:17:13.653Z,100735.31
2018-06-29T14:19:41.925Z,100731.90
2018-06-29T14:22:10.129Z,100728.11
2018-06-29T14:24:38.415Z,100729.89
